Time;durP1;ratioP1;P1;durP2;ratioP2;P2;SDS_P1;SDS_P2;PMS_P1;PMS_P2;Temp;Humidity;BMP_temperature;BMP_pressure;BME280_temperature;BME280_humidity;BME280_pressure;Samples;Min_cycle;Max_cycle;Signal;HPM_P1;HPM_P2
2023/07/14 00:00:20;;;;;;;2.38;1.02;;;19.00;73.10;;;;;;5073806;28;20563;-62
2023/07/14 00:02:48;;;;;;;0.88;0.70;;;19.00;73.10;;;;;;5077139;28;20055;-61
2023/07/14 00:05:20;;;;;;;1.58;1.00;;;19.00;73.10;;;;;;5077492;28;20146;-58
2023/07/14 00:07:48;;;;;;;0.50;0.50;;;19.00;73.10;;;;;;5076873;28;20458;-57
2023/07/14 00:10:26;;;;;;;1.67;1.25;;;19.00;73.30;;;;;;5074312;28;20019;-58
2023/07/14 00:12:52;;;;;;;1.35;1.02;;;19.00;73.50;;;;;;5076199;28;20618;-62
2023/07/14 00:15:20;;;;;;;0.55;0.55;;;19.00;73.50;;;;;;5074095;28;20032;-62
2023/07/14 00:17:48;;;;;;;1.77;1.23;;;19.00;73.50;;;;;;5070998;28;20040;-64
2023/07/14 00:20:29;;;;;;;1.20;1.00;;;19.00;73.50;;;;;;5079277;28;20487;-61
2023/07/14 00:22:55;;;;;;;0.73;0.73;;;19.10;73.60;;;;;;5080374;28;20395;-61
2023/07/14 00:25:24;;;;;;;1.08;0.80;;;19.00;73.70;;;;;;5081908;28;20021;-61
2023/07/14 00:27:53;;;;;;;0.88;0.57;;;19.00;73.90;;;;;;5073516;28;20036;-61
2023/07/14 00:30:21;;;;;;;0.85;0.85;;;19.00;74.00;;;;;;5075985;28;20032;-62
2023/07/14 00:32:48;;;;;;;0.93;0.77;;;19.10;74.10;;;;;;5083968;28;20637;-62
2023/07/14 00:35:28;;;;;;;1.15;0.90;;;19.10;74.10;;;;;;5082348;28;20495;-62
2023/07/14 00:37:57;;;;;;;2.58;1.35;;;19.20;74.20;;;;;;5080225;28;20031;-61
2023/07/14 00:40:32;;;;;;;2.67;0.80;;;19.10;74.40;;;;;;5082971;28;20017;-61
2023/07/14 00:42:58;;;;;;;1.38;1.27;;;19.10;74.50;;;;;;5077282;28;20035;-62
2023/07/14 00:45:27;;;;;;;1.55;1.00;;;19.10;74.60;;;;;;5070620;28;20028;-62
2023/07/14 00:47:57;;;;;;;0.90;0.90;;;19.10;74.70;;;;;;5080633;28;20060;-62
2023/07/14 00:50:29;;;;;;;1.48;1.10;;;19.20;74.80;;;;;;5082309;28;20031;-61
2023/07/14 00:52:58;;;;;;;1.33;1.15;;;19.20;75.50;;;;;;5064275;28;20188;-62
2023/07/14 00:55:24;;;;;;;1.23;1.05;;;19.10;75.00;;;;;;5070229;28;20028;-62
2023/07/14 00:57:53;;;;;;;3.30;1.33;;;19.20;75.30;;;;;;5079688;28;20470;-61
2023/07/14 01:00:30;;;;;;;1.08;0.88;;;19.10;75.30;;;;;;5077090;28;20468;-62
2023/07/14 01:03:04;;;;;;;2.08;1.20;;;19.10;75.30;;;;;;5078231;28;20082;-62
2023/07/14 01:05:31;;;;;;;0.88;0.73;;;19.10;75.30;;;;;;5075214;28;20394;-58
2023/07/14 01:07:57;;;;;;;1.52;1.42;;;19.00;75.20;;;;;;5068092;28;20033;-58
2023/07/14 01:10:26;;;;;;;1.10;1.00;;;19.00;75.30;;;;;;5077413;28;20115;-62
2023/07/14 01:13:06;;;;;;;1.42;1.20;;;19.00;75.30;;;;;;5071147;28;20108;-62
2023/07/14 01:15:32;;;;;;;1.23;0.75;;;19.00;75.20;;;;;;5075666;28;20020;-62
2023/07/14 01:17:58;;;;;;;1.55;1.38;;;18.90;75.80;;;;;;5078050;28;20029;-61
2023/07/14 01:20:24;;;;;;;1.38;0.93;;;18.90;75.30;;;;;;5075086;28;20485;-61
2023/07/14 01:23:05;;;;;;;0.82;0.82;;;18.80;75.30;;;;;;5075100;28;20046;-62
2023/07/14 01:25:36;;;;;;;1.25;0.60;;;18.80;75.40;;;;;;5080367;28;20640;-62
2023/07/14 01:28:05;;;;;;;2.15;0.80;;;18.70;75.30;;;;;;5072402;28;20013;-58
2023/07/14 01:30:32;;;;;;;0.70;0.70;;;18.70;75.30;;;;;;5071986;28;20036;-59
2023/07/14 01:32:58;;;;;;;2.20;1.13;;;18.70;75.40;;;;;;5076171;28;20430;-58
2023/07/14 01:35:33;;;;;;;1.63;1.38;;;18.60;75.50;;;;;;5074505;28;20035;-58
2023/07/14 01:37:59;;;;;;;2.35;1.00;;;18.60;75.40;;;;;;5080234;28;20557;-58
2023/07/14 01:40:26;;;;;;;1.38;1.10;;;18.60;75.40;;;;;;5084671;28;20056;-58
2023/07/14 01:43:01;;;;;;;1.67;1.20;;;18.60;75.40;;;;;;5078487;28;20438;-58
2023/07/14 01:45:49;;;;;;;1.40;1.05;;;18.60;75.50;;;;;;5076439;28;20020;-58
2023/07/14 01:48:18;;;;;;;1.10;1.00;;;18.60;75.40;;;;;;5084595;28;20114;-59
2023/07/14 01:50:51;;;;;;;2.50;1.23;;;18.60;75.60;;;;;;5080040;28;20012;-58
2023/07/14 01:53:28;;;;;;;1.92;1.00;;;18.60;75.80;;;;;;5073165;28;20051;-59
2023/07/14 01:55:58;;;;;;;2.05;1.05;;;18.60;75.80;;;;;;5080387;28;20033;-58
2023/07/14 01:58:47;;;;;;;1.10;1.00;;;18.50;75.80;;;;;;5078148;28;20029;-58
2023/07/14 02:01:13;;;;;;;3.60;0.93;;;18.50;75.90;;;;;;5078447;28;20039;-59
2023/07/14 02:03:44;;;;;;;1.30;0.90;;;18.50;75.90;;;;;;5082515;28;20032;-59
2023/07/14 02:06:10;;;;;;;4.60;1.57;;;18.50;75.80;;;;;;5078667;28;20235;-62
2023/07/14 02:08:36;;;;;;;3.33;0.80;;;18.50;75.80;;;;;;5069264;28;20989;-62
2023/07/14 02:11:02;;;;;;;1.48;0.90;;;18.40;75.80;;;;;;5083155;28;20387;-62
2023/07/14 02:13:28;;;;;;;1.13;1.02;;;18.40;75.90;;;;;;5084303;28;20047;-62
2023/07/14 02:15:54;;;;;;;2.08;1.05;;;18.40;75.90;;;;;;5073522;28;20066;-62
2023/07/14 02:18:26;;;;;;;1.27;1.08;;;18.40;75.90;;;;;;5082462;28;20028;-62
2023/07/14 02:20:56;;;;;;;1.60;0.90;;;18.40;75.90;;;;;;5076404;28;20036;-62
2023/07/14 02:23:25;;;;;;;1.30;1.15;;;18.30;75.90;;;;;;5086182;28;20032;-62
2023/07/14 02:26:12;;;;;;;2.47;1.05;;;18.30;75.90;;;;;;5076787;28;20468;-58
2023/07/14 02:28:38;;;;;;;1.20;1.10;;;18.30;75.80;;;;;;5075079;28;20044;-58
2023/07/14 02:31:33;;;;;;;1.27;0.95;;;18.20;75.90;;;;;;5076583;28;20412;-58
2023/07/14 02:33:59;;;;;;;0.93;0.77;;;18.20;75.80;;;;;;5070767;28;20040;-58
2023/07/14 02:36:46;;;;;;;1.85;1.02;;;18.20;75.90;;;;;;5079101;28;20036;-58
2023/07/14 02:39:12;;;;;;;1.08;0.95;;;18.20;75.90;;;;;;5085973;28;20028;-58
2023/07/14 02:41:42;;;;;;;1.02;0.95;;;18.20;75.90;;;;;;5071364;28;20486;-61
2023/07/14 02:44:12;;;;;;;2.15;1.05;;;18.20;76.00;;;;;;5065078;28;20044;-62
2023/07/14 02:46:49;;;;;;;1.20;1.00;;;18.20;76.10;;;;;;5089460;28;20016;-62
2023/07/14 02:49:15;;;;;;;3.10;1.02;;;18.20;76.10;;;;;;5080610;28;20024;-62
2023/07/14 02:51:40;;;;;;;2.17;1.55;;;18.20;76.20;;;;;;5088379;28;20066;-62
2023/07/14 02:54:06;;;;;;;1.38;1.27;;;18.10;76.20;;;;;;5084316;28;20032;-62
2023/07/14 02:56:33;;;;;;;1.00;1.00;;;18.20;76.30;;;;;;5085339;28;20036;-62
2023/07/14 02:59:00;;;;;;;1.35;1.10;;;18.10;76.30;;;;;;5083944;28;20032;-62
2023/07/14 03:01:27;;;;;;;1.23;1.10;;;18.20;76.40;;;;;;5087222;28;20039;-62
2023/07/14 03:03:53;;;;;;;3.03;0.80;;;18.10;76.40;;;;;;5081932;28;20108;-62
2023/07/14 03:06:20;;;;;;;2.70;1.17;;;18.10;76.50;;;;;;5079857;28;20140;-58
2023/07/14 03:08:46;;;;;;;1.63;1.13;;;18.20;76.60;;;;;;5074386;28;20415;-62
2023/07/14 03:11:12;;;;;;;1.08;0.98;;;18.10;76.60;;;;;;5080020;28;20020;-58
2023/07/14 03:13:38;;;;;;;1.00;0.90;;;18.10;76.70;;;;;;5078386;28;20043;-58
2023/07/14 03:16:04;;;;;;;1.98;0.80;;;18.20;76.70;;;;;;5074571;28;20028;-59
2023/07/14 03:18:30;;;;;;;1.13;1.02;;;18.20;76.70;;;;;;5071462;28;20028;-59
2023/07/14 03:20:57;;;;;;;2.45;0.98;;;18.20;76.60;;;;;;5073819;28;20420;-58
2023/07/14 03:23:23;;;;;;;0.90;0.90;;;18.20;76.70;;;;;;5074726;28;20090;-59
2023/07/14 03:25:58;;;;;;;1.73;1.00;;;18.10;76.70;;;;;;5076782;28;20037;-58
2023/07/14 03:28:24;;;;;;;1.50;1.13;;;18.20;76.80;;;;;;5094258;28;20081;-59
2023/07/14 03:30:50;;;;;;;1.83;1.27;;;18.10;76.90;;;;;;5081079;28;20040;-59
2023/07/14 03:33:15;;;;;;;3.42;2.03;;;18.10;77.10;;;;;;5071510;28;20043;-59
2023/07/14 03:35:41;;;;;;;1.23;0.93;;;18.00;77.20;;;;;;5074426;28;20478;-59
2023/07/14 03:38:07;;;;;;;1.95;1.33;;;18.00;77.20;;;;;;5070845;28;20123;-63
2023/07/14 03:40:33;;;;;;;1.30;1.20;;;18.10;77.20;;;;;;5077432;28;20728;-63
2023/07/14 03:42:59;;;;;;;3.58;1.15;;;18.10;77.00;;;;;;5076750;28;20029;-59
2023/07/14 03:45:25;;;;;;;2.45;1.00;;;18.10;77.00;;;;;;5072444;28;20029;-60
2023/07/14 03:47:50;;;;;;;1.23;1.00;;;18.10;77.10;;;;;;5078671;28;20040;-59
2023/07/14 03:50:16;;;;;;;1.95;1.38;;;18.10;77.10;;;;;;5071730;28;20094;-58
2023/07/14 03:52:42;;;;;;;1.20;1.10;;;18.10;77.00;;;;;;5072844;28;20098;-59
2023/07/14 03:55:10;;;;;;;1.35;1.25;;;18.00;77.00;;;;;;5074361;28;20060;-59
2023/07/14 03:57:36;;;;;;;1.90;1.35;;;18.00;77.10;;;;;;5071665;28;20016;-59
2023/07/14 04:00:16;;;;;;;1.63;1.25;;;18.00;77.20;;;;;;5070512;28;20027;-59
2023/07/14 04:02:43;;;;;;;4.13;1.40;;;17.90;77.30;;;;;;5076034;28;20459;-59
2023/07/14 04:05:11;;;;;;;1.73;1.27;;;17.90;77.30;;;;;;5079782;28;20410;-63
2023/07/14 04:07:38;;;;;;;1.65;1.05;;;17.90;77.20;;;;;;5080331;28;20032;-64
2023/07/14 04:10:05;;;;;;;1.23;1.00;;;17.90;77.10;;;;;;5070856;28;20112;-64
2023/07/14 04:12:32;;;;;;;1.58;1.20;;;17.90;77.10;;;;;;5079077;28;20505;-64
2023/07/14 04:14:58;;;;;;;1.30;1.20;;;18.00;77.20;;;;;;5071565;28;20111;-58
2023/07/14 04:17:24;;;;;;;1.67;1.23;;;17.90;77.10;;;;;;5075756;28;20052;-58
2023/07/14 04:19:50;;;;;;;1.17;0.85;;;18.00;77.00;;;;;;5075876;28;20075;-59
2023/07/14 04:22:17;;;;;;;1.13;0.88;;;17.90;77.00;;;;;;5074700;28;20435;-58
2023/07/14 04:24:43;;;;;;;1.50;1.05;;;18.00;77.00;;;;;;5072906;28;20153;-59
2023/07/14 04:27:09;;;;;;;1.65;1.30;;;17.90;77.00;;;;;;5074270;28;20039;-59
2023/07/14 04:29:34;;;;;;;1.20;1.10;;;17.90;77.10;;;;;;5074872;28;20431;-60
2023/07/14 04:32:00;;;;;;;2.30;1.55;;;17.90;77.20;;;;;;5065310;28;20693;-59
2023/07/14 04:34:26;;;;;;;1.80;1.33;;;18.00;77.30;;;;;;5074143;28;20115;-59
2023/07/14 04:36:53;;;;;;;1.60;1.25;;;18.00;77.40;;;;;;5073101;28;20163;-59
2023/07/14 04:39:19;;;;;;;2.10;1.17;;;18.00;77.40;;;;;;5061365;28;20039;-63
2023/07/14 04:41:45;;;;;;;1.60;1.50;;;18.00;77.40;;;;;;5077400;28;20041;-64
2023/07/14 04:44:14;;;;;;;1.05;0.95;;;18.10;77.40;;;;;;5073422;28;20036;-63
2023/07/14 04:46:41;;;;;;;2.35;1.13;;;18.10;77.30;;;;;;5068442;28;20036;-63
2023/07/14 04:49:07;;;;;;;0.93;0.80;;;18.20;77.30;;;;;;5072821;28;20043;-63
2023/07/14 04:51:34;;;;;;;1.15;1.05;;;18.20;77.20;;;;;;5080460;28;20028;-58
2023/07/14 04:54:00;;;;;;;1.13;1.02;;;18.30;77.30;;;;;;5071582;28;20032;-59
2023/07/14 04:56:26;;;;;;;2.08;1.50;;;18.30;77.20;;;;;;5075692;28;20036;-59
2023/07/14 04:58:52;;;;;;;1.42;0.85;;;18.40;77.20;;;;;;5070942;28;20509;-59
2023/07/14 05:01:18;;;;;;;1.90;1.13;;;18.40;77.10;;;;;;5068783;28;20063;-64
2023/07/14 05:03:44;;;;;;;1.30;1.20;;;18.40;77.20;;;;;;5076618;28;20118;-63
2023/07/14 05:06:10;;;;;;;1.27;0.82;;;18.40;77.20;;;;;;5069184;28;20048;-64
2023/07/14 05:08:36;;;;;;;1.38;1.00;;;18.40;77.30;;;;;;5083067;28;20032;-60
2023/07/14 05:11:03;;;;;;;1.58;1.40;;;18.50;77.40;;;;;;5085511;28;20477;-59
2023/07/14 05:13:29;;;;;;;0.90;0.73;;;18.50;77.40;;;;;;5071019;28;20451;-60
2023/07/14 05:15:58;;;;;;;1.13;1.00;;;18.50;77.40;;;;;;5069973;28;20131;-59
2023/07/14 05:18:24;;;;;;;1.55;0.98;;;18.60;77.40;;;;;;5069242;28;20047;-60
2023/07/14 05:20:50;;;;;;;0.80;0.80;;;18.60;77.30;;;;;;5078209;28;20036;-59
2023/07/14 05:23:16;;;;;;;1.38;0.95;;;18.70;77.30;;;;;;5074176;28;20045;-59
2023/07/14 05:25:42;;;;;;;2.22;1.02;;;18.70;77.40;;;;;;5074180;28;20030;-59
2023/07/14 05:28:09;;;;;;;3.00;1.63;;;18.80;77.40;;;;;;5075699;28;20394;-63
2023/07/14 05:30:35;;;;;;;1.00;0.90;;;18.80;77.50;;;;;;5068253;28;20035;-59
2023/07/14 05:33:01;;;;;;;1.15;1.00;;;18.90;77.50;;;;;;5076710;28;20112;-59
2023/07/14 05:35:27;;;;;;;1.85;1.10;;;18.90;77.50;;;;;;5069328;28;20095;-58
2023/07/14 05:37:53;;;;;;;2.20;1.50;;;18.90;77.40;;;;;;5071403;28;20131;-62
2023/07/14 05:40:20;;;;;;;1.63;1.35;;;19.00;77.40;;;;;;5051548;28;20027;-65
2023/07/14 05:42:46;;;;;;;1.77;1.20;;;19.00;77.40;;;;;;5072576;28;20043;-65
2023/07/14 05:45:12;;;;;;;1.05;0.95;;;19.10;77.40;;;;;;5076345;28;20368;-64
2023/07/14 05:47:43;;;;;;;1.40;1.05;;;19.10;77.30;;;;;;5075033;28;20550;-63
2023/07/14 05:50:09;;;;;;;2.88;0.85;;;19.10;77.20;;;;;;5070962;28;20024;-62
2023/07/14 05:52:36;;;;;;;1.90;1.52;;;19.10;77.10;;;;;;5077161;28;20036;-64
2023/07/14 05:55:03;;;;;;;4.03;1.30;;;19.20;77.10;;;;;;5078303;28;20510;-64
2023/07/14 05:57:30;;;;;;;1.08;0.90;;;19.20;77.00;;;;;;5072921;28;20547;-64
2023/07/14 05:59:56;;;;;;;3.58;1.23;;;19.30;76.90;;;;;;5074058;28;20549;-63
2023/07/14 06:02:22;;;;;;;4.72;1.48;;;19.30;76.70;;;;;;5072047;28;20033;-64
2023/07/14 06:04:48;;;;;;;1.35;1.25;;;19.40;76.60;;;;;;5074654;28;20521;-64
2023/07/14 06:07:15;;;;;;;2.35;1.23;;;19.50;76.40;;;;;;5081814;28;20047;-64
2023/07/14 06:09:41;;;;;;;1.65;1.20;;;19.60;76.30;;;;;;5065867;28;20835;-63
2023/07/14 06:12:09;;;;;;;1.63;1.27;;;19.70;75.90;;;;;;5074386;28;20158;-64
2023/07/14 06:14:38;;;;;;;4.50;1.80;;;19.70;75.70;;;;;;5068945;28;20168;-64
2023/07/14 06:17:05;;;;;;;2.25;1.33;;;19.70;75.60;;;;;;5073813;28;20029;-64
2023/07/14 06:19:31;;;;;;;2.95;1.70;;;19.70;75.50;;;;;;5076978;28;20033;-63
2023/07/14 06:21:59;;;;;;;4.32;1.85;;;19.80;75.30;;;;;;5067027;28;20558;-64
2023/07/14 06:24:24;;;;;;;2.08;1.60;;;19.80;75.00;;;;;;5074138;28;20392;-63
2023/07/14 06:26:51;;;;;;;1.83;1.30;;;19.90;74.70;;;;;;5078861;28;20025;-63
2023/07/14 06:29:18;;;;;;;2.33;1.30;;;19.90;74.30;;;;;;5082977;28;20050;-64
2023/07/14 06:31:44;;;;;;;1.65;1.38;;;19.90;74.20;;;;;;5083020;28;20066;-64
2023/07/14 06:34:10;;;;;;;1.52;1.35;;;20.00;73.70;;;;;;5071401;28;20479;-64
2023/07/14 06:36:36;;;;;;;1.55;0.88;;;20.00;73.50;;;;;;5077789;28;20036;-60
2023/07/14 06:39:03;;;;;;;4.32;1.50;;;20.10;73.00;;;;;;5082374;28;20516;-59
2023/07/14 06:41:29;;;;;;;1.52;1.20;;;20.10;72.80;;;;;;5076371;28;20055;-63
2023/07/14 06:43:55;;;;;;;2.28;1.77;;;20.10;72.70;;;;;;5073978;28;20494;-60
2023/07/14 06:46:20;;;;;;;3.45;1.50;;;20.10;71.20;;;;;;5078900;28;20045;-63
2023/07/14 06:48:46;;;;;;;2.33;1.20;;;20.20;70.90;;;;;;5077005;28;20086;-63
2023/07/14 06:51:16;;;;;;;2.45;1.00;;;20.20;70.20;;;;;;5073541;28;20123;-60
2023/07/14 06:53:42;;;;;;;2.88;1.10;;;20.20;70.30;;;;;;5080769;28;20036;-63
2023/07/14 06:56:08;;;;;;;1.48;1.00;;;20.20;70.10;;;;;;5079848;28;20047;-63
2023/07/14 06:58:34;;;;;;;2.15;0.90;;;20.20;69.80;;;;;;5077482;28;20028;-63
2023/07/14 07:01:01;;;;;;;2.53;1.20;;;20.30;69.80;;;;;;5075574;28;20021;-63
2023/07/14 07:03:28;;;;;;;1.58;1.30;;;20.40;69.70;;;;;;5074617;28;20112;-63
2023/07/14 07:05:56;;;;;;;2.08;1.30;;;20.50;69.30;;;;;;5069597;28;20036;-59
2023/07/14 07:08:22;;;;;;;3.78;0.93;;;20.50;69.10;;;;;;5077176;28;20024;-63
2023/07/14 07:10:48;;;;;;;2.17;0.93;;;20.60;69.10;;;;;;5081291;28;20028;-63
2023/07/14 07:13:14;;;;;;;2.97;0.90;;;20.70;69.00;;;;;;5076326;28;20040;-59
2023/07/14 07:15:41;;;;;;;2.08;1.30;;;20.80;68.80;;;;;;5071399;28;20032;-59
2023/07/14 07:18:08;;;;;;;2.65;1.13;;;20.80;68.40;;;;;;5071303;28;20082;-63
2023/07/14 07:20:36;;;;;;;3.20;1.30;;;20.70;68.30;;;;;;5074529;28;20036;-63
2023/07/14 07:23:02;;;;;;;2.17;1.23;;;20.70;68.60;;;;;;5069773;28;20060;-63
2023/07/14 07:25:27;;;;;;;1.45;1.15;;;20.70;68.70;;;;;;5081688;28;20396;-63
2023/07/14 07:27:53;;;;;;;0.80;0.60;;;20.70;68.90;;;;;;5075835;28;20032;-59
2023/07/14 07:30:19;;;;;;;3.90;0.85;;;20.80;68.70;;;;;;5072399;28;20078;-60
2023/07/14 07:32:46;;;;;;;7.03;1.33;;;20.90;68.10;;;;;;5070956;28;20036;-60
2023/07/14 07:35:12;;;;;;;1.58;1.20;;;21.00;67.20;;;;;;5082667;28;20375;-60
2023/07/14 07:37:38;;;;;;;2.55;1.15;;;21.00;66.50;;;;;;5070941;28;20047;-60
2023/07/14 07:40:06;;;;;;;4.20;1.73;;;21.00;66.90;;;;;;5072883;28;20468;-63
2023/07/14 07:42:34;;;;;;;0.98;0.88;;;21.20;67.00;;;;;;5072016;28;20032;-64
2023/07/14 07:45:00;;;;;;;2.10;1.33;;;21.20;66.80;;;;;;5089969;28;20028;-64
2023/07/14 07:47:26;;;;;;;1.63;1.13;;;21.30;66.70;;;;;;5074850;28;20054;-60
2023/07/14 07:49:52;;;;;;;3.85;1.77;;;21.30;66.40;;;;;;5074503;28;20024;-64
2023/07/14 07:52:18;;;;;;;1.73;1.30;;;21.30;65.90;;;;;;5074484;28;20036;-61
2023/07/14 07:54:43;;;;;;;1.30;1.20;;;21.30;65.70;;;;;;5076797;28;20031;-64
2023/07/14 07:57:10;;;;;;;1.90;1.35;;;21.30;65.90;;;;;;5074745;28;20032;-59
2023/07/14 07:59:37;;;;;;;1.30;0.90;;;21.40;65.50;;;;;;5076349;28;20073;-59
2023/07/14 08:02:03;;;;;;;1.55;1.00;;;21.50;65.50;;;;;;5077019;28;20025;-64
2023/07/14 08:04:29;;;;;;;2.85;1.42;;;21.50;65.50;;;;;;5070728;28;20375;-63
2023/07/14 08:06:55;;;;;;;2.03;1.20;;;21.70;65.40;;;;;;5071055;28;20055;-62
2023/07/14 08:09:21;;;;;;;0.80;0.68;;;21.60;63.40;;;;;;5075921;28;20036;-62
2023/07/14 08:11:47;;;;;;;1.73;0.77;;;21.70;63.10;;;;;;5068057;28;20100;-58
2023/07/14 08:14:18;;;;;;;1.25;0.60;;;21.70;62.30;;;;;;5074266;28;20032;-58
2023/07/14 08:16:45;;;;;;;1.05;0.82;;;21.80;62.00;;;;;;5065454;28;20028;-62
2023/07/14 08:19:10;;;;;;;1.48;1.00;;;21.80;62.00;;;;;;5062787;28;20036;-62
2023/07/14 08:21:37;;;;;;;1.77;0.85;;;21.80;62.10;;;;;;5079820;28;20041;-58
2023/07/14 08:24:04;;;;;;;0.85;0.80;;;21.80;62.30;;;;;;5078147;28;20032;-58
2023/07/14 08:26:32;;;;;;;1.10;0.57;;;21.90;62.10;;;;;;5074610;28;20857;-58
2023/07/14 08:28:58;;;;;;;1.15;1.05;;;21.90;62.10;;;;;;5071443;28;20023;-58
2023/07/14 08:31:24;;;;;;;1.20;0.80;;;21.90;62.20;;;;;;5069936;28;20032;-58
2023/07/14 08:33:51;;;;;;;1.15;0.90;;;22.00;62.40;;;;;;5078256;28;20077;-58
2023/07/14 08:36:17;;;;;;;1.75;0.80;;;22.10;62.50;;;;;;5073767;28;20032;-58
2023/07/14 08:38:43;;;;;;;0.73;0.70;;;22.30;62.30;;;;;;5078080;28;20865;-63
2023/07/14 08:41:26;;;;;;;1.95;1.08;;;22.40;62.10;;;;;;5068436;28;20107;-59
2023/07/14 08:44:10;;;;;;;1.40;0.60;;;22.50;60.80;;;;;;5068807;28;20051;-59
2023/07/14 08:46:46;;;;;;;0.88;0.80;;;22.50;60.70;;;;;;5069896;28;20368;-62
2023/07/14 08:49:20;;;;;;;1.13;0.73;;;22.40;60.60;;;;;;5074303;28;20704;-58
2023/07/14 08:52:09;;;;;;;1.45;0.65;;;22.40;60.70;;;;;;5082662;28;20529;-63
2023/07/14 08:54:51;;;;;;;0.80;0.60;;;22.40;61.10;;;;;;5058174;28;20068;-63
2023/07/14 08:57:20;;;;;;;1.70;1.03;;;22.60;61.20;;;;;;5060366;28;20349;-58
2023/07/14 08:59:48;;;;;;;0.63;0.63;;;22.70;61.00;;;;;;5071878;28;20510;-63
2023/07/14 09:02:32;;;;;;;2.05;1.10;;;22.80;60.30;;;;;;5070522;28;20033;-57
2023/07/14 09:05:04;;;;;;;1.52;1.20;;;22.80;59.90;;;;;;5077262;28;20068;-58
2023/07/14 09:07:30;;;;;;;0.73;0.60;;;22.80;59.70;;;;;;5080092;28;20036;-57
2023/07/14 09:09:56;;;;;;;1.85;1.17;;;22.70;59.70;;;;;;5078754;28;20032;-57
2023/07/14 09:12:49;;;;;;;0.60;0.52;;;22.60;59.70;;;;;;5073243;28;20017;-63
2023/07/14 09:15:19;;;;;;;;;;;22.70;59.20;;;;;;5064244;28;20033;-62
2023/07/14 09:18:33;;;;;;;0.73;0.65;;;22.70;58.30;;;;;;5073495;28;19919;-58
2023/07/14 09:21:13;;;;;;;1.33;0.80;;;22.60;57.50;;;;;;5049248;28;20044;-58
2023/07/14 09:23:56;;;;;;;1.15;0.88;;;22.60;58.00;;;;;;5082539;28;20093;-61
2023/07/14 09:26:33;;;;;;;1.65;0.90;;;22.60;58.20;;;;;;5085482;28;20085;-57
2023/07/14 09:29:07;;;;;;;0.80;0.80;;;22.70;58.80;;;;;;5075914;28;20386;-58
2023/07/14 09:31:42;;;;;;;1.98;1.05;;;22.80;58.80;;;;;;5070611;28;20356;-64
2023/07/14 09:34:25;;;;;;;1.40;1.25;;;23.00;58.50;;;;;;5088282;28;20055;-63
2023/07/14 09:36:53;;;;;;;3.03;1.02;;;23.00;58.10;;;;;;5075863;28;20029;-63
2023/07/14 09:39:29;;;;;;;1.75;1.15;;;23.10;58.00;;;;;;5075323;28;20032;-58
2023/07/14 09:41:58;;;;;;;1.30;0.88;;;23.10;57.60;;;;;;5075796;28;20044;-63
2023/07/14 09:44:24;;;;;;;1.30;0.90;;;23.00;57.80;;;;;;5065590;28;20033;-59
2023/07/14 09:46:51;;;;;;;2.90;1.27;;;23.00;58.10;;;;;;5070134;28;20025;-58
2023/07/14 09:49:35;;;;;;;0.70;0.70;;;23.00;57.90;;;;;;5069121;28;20098;-58
2023/07/14 09:52:14;;;;;;;1.45;0.80;;;23.10;57.80;;;;;;5079005;28;20103;-63
2023/07/14 09:54:51;;;;;;;2.38;1.05;;;23.20;57.20;;;;;;5078690;28;20021;-59
2023/07/14 09:57:19;;;;;;;3.72;1.05;;;23.30;56.80;;;;;;5071183;28;20032;-63
2023/07/14 09:59:53;;;;;;;1.75;1.02;;;23.30;56.70;;;;;;5075269;28;20051;-63
2023/07/14 10:02:26;;;;;;;0.65;0.65;;;23.30;56.30;;;;;;5075571;28;20473;-63
2023/07/14 10:04:59;;;;;;;1.00;0.57;;;23.20;56.70;;;;;;5079798;28;20036;-63
2023/07/14 10:07:25;;;;;;;2.15;0.70;;;23.30;56.70;;;;;;5077419;28;20804;-63
2023/07/14 10:10:08;;;;;;;1.35;1.05;;;23.40;56.60;;;;;;5078690;28;20095;-63
2023/07/14 10:12:42;;;;;;;0.95;0.50;;;23.60;55.90;;;;;;5078879;28;20016;-63
2023/07/14 10:15:34;;;;;;;1.83;0.90;;;23.60;56.00;;;;;;5065064;28;20135;-63
2023/07/14 10:18:05;;;;;;;0.68;0.65;;;23.70;56.20;;;;;;5065461;28;20379;-58
2023/07/14 10:20:32;;;;;;;;;;;23.80;56.30;;;;;;5077842;28;20028;-63
2023/07/14 10:22:59;;;;;;;0.93;0.73;;;23.90;55.70;;;;;;5072292;28;20568;-63
2023/07/14 10:25:27;;;;;;;1.02;0.60;;;23.90;56.10;;;;;;5081766;28;20040;-63
2023/07/14 10:27:57;;;;;;;1.65;0.82;;;24.00;56.00;;;;;;5064283;28;22050;-63
2023/07/14 10:30:40;;;;;;;1.02;0.90;;;24.10;56.20;;;;;;5062323;28;20135;-63
2023/07/14 10:33:15;;;;;;;0.98;0.73;;;24.50;55.90;;;;;;5071645;28;20117;-59
2023/07/14 10:35:41;;;;;;;2.47;1.15;;;24.70;54.10;;;;;;5071289;28;20023;-58
2023/07/14 10:38:23;;;;;;;1.40;0.73;;;24.70;53.90;;;;;;5071160;28;20158;-59
2023/07/14 10:41:08;;;;;;;0.80;0.60;;;24.70;53.90;;;;;;5071159;28;20604;-59
2023/07/14 10:43:55;;;;;;;2.40;0.75;;;24.70;54.30;;;;;;5070012;28;20487;-63
2023/07/14 10:46:30;;;;;;;0.73;0.73;;;24.60;54.30;;;;;;5071285;28;20029;-63
2023/07/14 10:49:14;;;;;;;1.33;0.80;;;24.50;54.30;;;;;;5069040;28;20024;-62
2023/07/14 10:52:05;;;;;;;3.80;1.45;;;24.40;54.30;;;;;;5090531;28;20088;-63
2023/07/14 10:54:48;;;;;;;2.45;0.95;;;24.40;53.10;;;;;;5034363;28;20128;-63
2023/07/14 10:57:33;;;;;;;2.40;0.95;;;24.30;53.60;;;;;;5074650;28;20032;-63
2023/07/14 11:00:15;;;;;;;1.80;0.68;;;24.30;54.10;;;;;;5063729;28;20332;-63
2023/07/14 11:02:45;;;;;;;0.43;0.43;;;24.30;54.70;;;;;;5069215;28;20064;-63
2023/07/14 11:05:21;;;;;;;0.88;0.55;;;24.30;55.10;;;;;;5076565;28;20028;-63
2023/07/14 11:07:47;;;;;;;0.63;0.60;;;24.40;55.10;;;;;;5072082;28;20070;-63
2023/07/14 11:10:32;;;;;;;1.65;0.95;;;24.50;54.90;;;;;;5068518;28;20028;-59
2023/07/14 11:13:24;;;;;;;0.70;0.70;;;24.60;54.40;;;;;;5073215;28;20025;-63
2023/07/14 11:16:01;;;;;;;0.77;0.75;;;24.60;54.10;;;;;;5059837;28;20169;-59
2023/07/14 11:18:51;;;;;;;1.38;0.93;;;24.60;54.70;;;;;;5072572;28;20031;-59
2023/07/14 11:21:20;;;;;;;1.00;0.68;;;24.70;53.20;;;;;;5074073;28;20048;-59
2023/07/14 11:24:06;;;;;;;0.75;0.60;;;24.60;53.50;;;;;;5070332;28;20119;-58
2023/07/14 11:26:57;;;;;;;2.53;0.88;;;24.60;54.00;;;;;;5073992;28;20051;-63
2023/07/14 11:29:26;;;;;;;1.70;0.80;;;24.60;53.90;;;;;;5066592;28;20020;-58
2023/07/14 11:31:58;;;;;;;1.08;0.90;;;24.50;53.70;;;;;;5071868;28;20078;-59
2023/07/14 11:34:40;;;;;;;0.95;0.82;;;24.40;53.50;;;;;;5076389;28;20024;-59
2023/07/14 11:37:53;;;;;;;0.60;0.60;;;24.40;53.90;;;;;;5068698;28;20037;-63
2023/07/14 11:40:22;;;;;;;0.50;0.50;;;24.40;53.90;;;;;;5033187;28;20395;-59
2023/07/14 11:42:59;;;;;;;1.35;0.90;;;24.40;54.10;;;;;;5072116;28;20033;-63
2023/07/14 11:45:28;;;;;;;0.40;0.40;;;24.40;54.20;;;;;;5072229;28;20031;-63
2023/07/14 11:47:57;;;;;;;0.68;0.60;;;24.50;54.30;;;;;;5069553;28;20024;-61
2023/07/14 11:50:25;;;;;;;1.45;0.70;;;24.60;54.10;;;;;;5074430;28;20420;-63
2023/07/14 11:53:06;;;;;;;0.57;0.55;;;24.70;54.50;;;;;;5060902;28;20029;-64
2023/07/14 11:55:33;;;;;;;0.60;0.60;;;24.80;54.60;;;;;;5072001;28;20089;-68
2023/07/14 11:58:27;;;;;;;0.70;0.65;;;25.00;54.60;;;;;;5074656;28;20025;-64
2023/07/14 12:01:03;;;;;;;1.85;1.20;;;25.30;54.20;;;;;;5069274;28;20456;-59
2023/07/14 12:03:48;;;;;;;3.58;1.23;;;25.30;52.80;;;;;;5073164;28;20459;-59
2023/07/14 12:06:20;;;;;;;0.70;0.70;;;25.10;52.60;;;;;;5066145;28;20076;-59
2023/07/14 12:09:05;;;;;;;4.20;1.10;;;24.80;53.20;;;;;;5072992;28;20032;-64
2023/07/14 12:11:40;;;;;;;1.98;0.80;;;24.50;53.60;;;;;;5054245;28;20093;-64
2023/07/14 12:14:44;;;;;;;0.68;0.50;;;24.40;54.50;;;;;;5068528;28;20032;-64
2023/07/14 12:17:45;;;;;;;1.58;0.80;;;24.40;54.90;;;;;;5070692;28;20447;-63
2023/07/14 12:20:11;;;;;;;0.73;0.73;;;24.60;55.10;;;;;;5071390;28;21984;-59
2023/07/14 12:22:39;;;;;;;1.95;0.80;;;24.90;55.10;;;;;;5061637;28;20051;-60
2023/07/14 12:25:37;;;;;;;1.63;0.73;;;25.10;53.90;;;;;;5069051;28;20033;-60
2023/07/14 12:28:03;;;;;;;0.73;0.73;;;25.40;54.00;;;;;;5069797;28;20042;-60
2023/07/14 12:30:30;;;;;;;0.65;0.60;;;25.60;53.40;;;;;;5064889;28;20024;-60
2023/07/14 12:33:13;;;;;;;2.03;0.82;;;25.70;52.70;;;;;;5065823;28;20033;-60
2023/07/14 12:35:39;;;;;;;2.15;0.70;;;25.80;53.10;;;;;;5070692;28;20028;-65
2023/07/14 12:38:15;;;;;;;1.17;0.90;;;26.00;53.40;;;;;;5074975;28;20521;-59
2023/07/14 12:40:42;;;;;;;1.00;0.88;;;26.10;52.20;;;;;;5073601;28;20036;-65
2023/07/14 12:43:24;;;;;;;0.82;0.63;;;26.10;52.20;;;;;;5077849;28;20032;-59
2023/07/14 12:45:50;;;;;;;;;;;26.20;52.40;;;;;;5071402;28;20056;-66
2023/07/14 12:48:15;;;;;;;0.60;0.60;;;26.30;52.40;;;;;;5071737;28;19912;-64
2023/07/14 12:50:44;;;;;;;0.73;0.73;;;26.40;52.30;;;;;;5068158;28;20554;-59
2023/07/14 12:53:15;;;;;;;1.00;0.90;;;26.70;52.30;;;;;;5059329;28;20082;-64
2023/07/14 12:55:43;;;;;;;1.33;1.00;;;27.00;52.00;;;;;;5068939;28;20364;-64
2023/07/14 12:58:20;;;;;;;3.40;0.73;;;27.20;51.00;;;;;;5077983;28;20063;-59
2023/07/14 13:00:46;;;;;;;1.83;0.90;;;27.20;50.20;;;;;;5073238;28;20028;-64
2023/07/14 13:03:13;;;;;;;1.17;0.90;;;27.20;50.50;;;;;;5068194;28;20032;-60
2023/07/14 13:05:41;;;;;;;1.10;0.73;;;27.20;51.00;;;;;;5065359;28;20049;-59